Gross, Kansas
Current Conditions -  °F | °C
As of 5:55 PM on Monday 20 Oct 2014 (Local Time) from KPTS Reporting Station
Clear Clear  
Wind Chill: 76°   Ceiling: Unl
Heat Index: 78°   Visibility: 10mi
Dew Point: 55°   Wind: 0mph
Humidity: 49%   Direction: NA
Pressure: 30.02"   Gusts: NA
Location:  37.6277°N, 94.7013°W
Report Text: KPTS 202255Z AUTO 00000KT 10SM CLR 25/13 A3002 RMK AO2 T02450130
Loading
Personal Weather Stations






























Interactive Weather Map
Tropical Storm Tracking
New forecast layout! Learn more

10-Day Weather Forecast

Advertisements
Track Severe Weather on mobile